createdAt,value
2018-03-16T00:01:32.675Z,39.13
2018-03-16T00:04:03.127Z,40.70
2018-03-16T00:06:32.155Z,40.87
2018-03-16T00:09:00.583Z,40.70
2018-03-16T00:11:29.011Z,40.20
2018-03-16T00:13:58.135Z,42.20
2018-03-16T00:16:26.523Z,43.07
2018-03-16T00:18:54.909Z,40.90
2018-03-16T00:21:23.284Z,42.53
2018-03-16T00:23:52.460Z,41.00
2018-03-16T00:26:20.850Z,41.33
2018-03-16T00:28:49.228Z,43.93
2018-03-16T00:31:17.627Z,42.27
2018-03-16T00:33:46.073Z,42.83
2018-03-16T00:36:14.487Z,41.43
2018-03-16T00:38:42.914Z,41.47
2018-03-16T00:41:11.269Z,41.13
2018-03-16T00:43:39.703Z,41.63
2018-03-16T00:46:08.069Z,39.27
2018-03-16T00:48:36.459Z,43.57
2018-03-16T00:51:04.864Z,42.13
2018-03-16T00:53:33.246Z,41.90
2018-03-16T00:56:01.635Z,40.87
2018-03-16T00:58:30.015Z,43.93
2018-03-16T01:00:58.415Z,41.80
2018-03-16T01:03:27.580Z,41.33
2018-03-16T01:05:55.926Z,42.33
2018-03-16T01:08:24.331Z,41.17
2018-03-16T01:10:52.755Z,43.30
2018-03-16T01:13:21.121Z,41.90
2018-03-16T01:15:50.273Z,43.03
2018-03-16T01:18:18.681Z,39.20
2018-03-16T01:20:47.058Z,42.27
2018-03-16T01:23:15.422Z,42.57
2018-03-16T01:25:43.833Z,42.07
2018-03-16T01:28:13.332Z,41.97
2018-03-16T01:30:41.793Z,43.60
2018-03-16T01:33:10.198Z,42.73
2018-03-16T01:35:39.375Z,44.53
2018-03-16T01:38:07.789Z,43.67
2018-03-16T01:40:36.188Z,41.17
2018-03-16T01:43:04.593Z,43.37
2018-03-16T01:45:32.968Z,42.57
2018-03-16T01:48:01.362Z,44.43
2018-03-16T01:50:29.757Z,43.20
2018-03-16T01:53:10.833Z,41.47
2018-03-16T01:55:39.993Z,40.00
2018-03-16T01:58:08.405Z,43.87
2018-03-16T02:00:37.609Z,40.90
2018-03-16T02:03:06.754Z,43.30
2018-03-16T02:05:35.132Z,42.40
2018-03-16T02:08:03.555Z,43.07
2018-03-16T02:10:32.690Z,42.87
2018-03-16T02:13:01.093Z,43.20
2018-03-16T02:15:29.608Z,43.33
2018-03-16T02:17:58.775Z,42.20
2018-03-16T02:20:27.210Z,43.17
2018-03-16T02:22:55.582Z,43.77
2018-03-16T02:25:24.022Z,42.50
2018-03-16T02:27:52.407Z,42.10
2018-03-16T02:30:20.778Z,41.97
2018-03-16T02:32:49.190Z,41.47
2018-03-16T02:35:17.556Z,42.70
2018-03-16T02:37:46.733Z,41.37
2018-03-16T02:40:15.148Z,39.60
2018-03-16T02:42:43.564Z,41.37
2018-03-16T02:45:11.974Z,41.30
2018-03-16T02:47:40.363Z,41.43
2018-03-16T02:50:09.558Z,40.10
2018-03-16T02:52:38.699Z,41.40
2018-03-16T02:55:07.096Z,40.87
2018-03-16T02:57:35.507Z,41.27
2018-03-16T03:00:03.987Z,43.50
2018-03-16T03:02:33.158Z,40.33
2018-03-16T03:05:01.556Z,39.77
2018-03-16T03:07:29.954Z,42.63
2018-03-16T03:09:58.342Z,41.97
2018-03-16T03:12:26.728Z,41.43
2018-03-16T03:14:55.131Z,41.90
2018-03-16T03:17:23.505Z,41.97
2018-03-16T03:19:51.913Z,41.27
2018-03-16T03:22:20.326Z,41.83
2018-03-16T03:24:48.721Z,42.07
2018-03-16T03:27:17.155Z,42.27
2018-03-16T03:29:45.541Z,40.67
2018-03-16T03:32:14.680Z,44.23
2018-03-16T03:34:43.098Z,43.13
2018-03-16T03:37:11.534Z,42.07
2018-03-16T03:39:39.911Z,42.33
2018-03-16T03:42:08.293Z,41.77
2018-03-16T03:44:36.664Z,42.40
2018-03-16T03:47:05.074Z,41.90
2018-03-16T03:49:33.430Z,42.20
2018-03-16T03:52:01.787Z,43.00
2018-03-16T03:54:30.207Z,43.00
2018-03-16T03:56:58.565Z,44.77
2018-03-16T03:59:26.964Z,43.33
2018-03-16T04:01:55.361Z,43.17
2018-03-16T04:04:23.768Z,42.63
2018-03-16T04:06:52.183Z,45.53
2018-03-16T04:09:20.549Z,46.23
2018-03-16T04:11:48.977Z,45.93
2018-03-16T04:14:17.360Z,43.47
2018-03-16T04:16:46.520Z,44.97
2018-03-16T04:19:14.900Z,44.70
2018-03-16T04:21:43.297Z,44.10
2018-03-16T04:24:11.673Z,44.43
2018-03-16T04:26:40.093Z,45.67
2018-03-16T04:29:08.485Z,47.83
2018-03-16T04:31:36.873Z,43.03
2018-03-16T04:34:06.037Z,45.50
2018-03-16T04:36:34.400Z,44.67
2018-03-16T04:39:03.714Z,45.93
2018-03-16T04:41:32.076Z,44.87
2018-03-16T04:44:01.217Z,45.10
2018-03-16T04:46:29.612Z,44.30
2018-03-16T04:48:58.010Z,46.20
2018-03-16T04:51:26.423Z,43.67
2018-03-16T04:53:54.806Z,45.53
2018-03-16T04:56:23.607Z,45.13
2018-03-16T04:58:52.040Z,43.60
2018-03-16T05:01:20.443Z,43.90
2018-03-16T05:03:49.618Z,45.60
2018-03-16T05:06:18.010Z,45.67
2018-03-16T05:08:47.168Z,46.90
2018-03-16T05:11:15.550Z,45.13
2018-03-16T05:13:43.959Z,45.43
2018-03-16T05:16:12.391Z,44.20
2018-03-16T05:18:40.746Z,46.30
2018-03-16T05:21:09.130Z,45.60
2018-03-16T05:23:37.558Z,42.93
2018-03-16T05:26:05.939Z,45.33
2018-03-16T05:28:34.348Z,47.07
2018-03-16T05:31:02.734Z,44.33
2018-03-16T05:33:31.118Z,46.33
2018-03-16T05:35:59.558Z,46.80
2018-03-16T05:38:28.707Z,46.13
2018-03-16T05:40:57.086Z,47.57
2018-03-16T05:43:25.509Z,46.07
2018-03-16T05:45:54.635Z,45.27
2018-03-16T05:48:23.032Z,45.20
2018-03-16T05:50:51.448Z,46.97
2018-03-16T05:53:19.854Z,46.10
2018-03-16T05:55:48.267Z,46.37
2018-03-16T05:58:16.646Z,44.63
2018-03-16T06:00:45.059Z,46.27
2018-03-16T06:03:14.266Z,48.43
2018-03-16T06:05:43.406Z,47.33
2018-03-16T06:08:11.803Z,46.33
2018-03-16T06:10:40.218Z,46.33
2018-03-16T06:13:09.355Z,47.00
2018-03-16T06:15:37.768Z,47.77
2018-03-16T06:18:06.144Z,45.30
2018-03-16T06:20:34.527Z,46.77
2018-03-16T06:23:02.951Z,46.07
2018-03-16T06:25:31.329Z,47.07
2018-03-16T06:27:59.721Z,47.47
2018-03-16T06:30:28.087Z,45.37
2018-03-16T06:32:56.539Z,45.00
2018-03-16T06:35:24.936Z,45.67
2018-03-16T06:37:53.323Z,45.07
2018-03-16T06:40:21.766Z,47.67
2018-03-16T06:42:50.153Z,46.97
2018-03-16T06:45:19.311Z,44.50
2018-03-16T06:47:47.730Z,45.50
2018-03-16T06:50:16.917Z,47.67
2018-03-16T06:52:45.323Z,45.17
2018-03-16T06:55:13.740Z,43.17
2018-03-16T06:57:42.108Z,44.17
2018-03-16T07:00:10.528Z,44.60
2018-03-16T07:02:38.891Z,43.27
2018-03-16T07:05:07.257Z,44.20
2018-03-16T07:07:35.687Z,43.97
2018-03-16T07:10:04.203Z,42.80
2018-03-16T07:12:32.613Z,42.73
2018-03-16T07:15:12.971Z,44.00
2018-03-16T07:17:41.399Z,43.60
2018-03-16T07:20:09.783Z,42.60
2018-03-16T07:22:38.176Z,42.00
2018-03-16T07:25:06.532Z,41.67
2018-03-16T07:27:34.939Z,42.50
2018-03-16T07:30:03.441Z,41.43
2018-03-16T07:32:31.865Z,40.37
2018-03-16T07:35:00.287Z,42.53
2018-03-16T07:37:28.688Z,40.97
2018-03-16T07:39:57.091Z,41.57
2018-03-16T07:42:25.488Z,42.67
2018-03-16T07:44:53.920Z,41.23
2018-03-16T07:47:22.318Z,41.23
2018-03-16T07:49:51.480Z,41.03
2018-03-16T07:52:19.862Z,42.57
2018-03-16T07:54:48.269Z,41.63
2018-03-16T07:57:17.452Z,39.67
2018-03-16T07:59:45.876Z,39.10
2018-03-16T08:02:14.255Z,37.20
2018-03-16T08:04:42.652Z,37.90
2018-03-16T08:07:11.038Z,37.17
2018-03-16T08:09:39.451Z,37.47
2018-03-16T08:12:08.583Z,35.53
2018-03-16T08:14:37.012Z,34.67
2018-03-16T08:17:05.388Z,35.33
2018-03-16T08:19:33.783Z,35.00
2018-03-16T08:22:02.995Z,32.03
2018-03-16T08:24:31.410Z,31.53
2018-03-16T08:26:59.808Z,31.33
2018-03-16T08:29:28.178Z,30.67
2018-03-16T08:31:56.613Z,31.53
2018-03-16T08:34:25.056Z,31.70
2018-03-16T08:36:53.437Z,30.30
2018-03-16T08:39:21.860Z,30.70
2018-03-16T08:41:50.247Z,30.87
2018-03-16T08:44:18.680Z,30.73
2018-03-16T08:46:49.983Z,30.50
2018-03-16T08:49:18.365Z,29.93
2018-03-16T08:51:46.778Z,27.83
2018-03-16T08:54:15.187Z,27.87
2018-03-16T08:56:43.601Z,27.03
2018-03-16T08:59:12.051Z,27.03
2018-03-16T09:01:40.498Z,29.10
2018-03-16T09:04:09.709Z,26.23
2018-03-16T09:06:38.107Z,28.03
2018-03-16T09:09:06.553Z,27.07
2018-03-16T09:11:35.754Z,26.93
2018-03-16T09:14:04.982Z,27.53
2018-03-16T09:16:33.406Z,25.77
2018-03-16T09:19:01.847Z,26.57
2018-03-16T09:21:30.272Z,25.77
2018-03-16T09:23:59.124Z,26.60
2018-03-16T09:26:27.566Z,27.30
2018-03-16T09:28:56.034Z,25.87
2018-03-16T09:31:25.245Z,27.23
2018-03-16T09:33:53.733Z,26.07
2018-03-16T09:36:22.166Z,25.07
2018-03-16T09:38:50.607Z,26.53
2018-03-16T09:41:22.246Z,27.50
2018-03-16T09:43:50.671Z,28.10
2018-03-16T09:46:19.117Z,27.97
2018-03-16T09:48:47.533Z,26.67
2018-03-16T09:51:15.978Z,28.40
2018-03-16T09:53:44.444Z,26.87
2018-03-16T09:56:12.940Z,27.40
2018-03-16T09:58:41.424Z,29.17
2018-03-16T10:01:09.902Z,28.70
2018-03-16T10:03:38.325Z,28.33
2018-03-16T10:06:07.981Z,29.20
2018-03-16T10:08:36.753Z,27.87
2018-03-16T10:11:05.202Z,27.70
2018-03-16T10:13:33.665Z,29.33
2018-03-16T10:16:02.133Z,27.60
2018-03-16T10:18:30.595Z,28.50
2018-03-16T10:20:59.039Z,27.83
2018-03-16T10:23:28.272Z,29.53
2018-03-16T10:25:58.330Z,29.57
2018-03-16T10:28:27.550Z,30.03
2018-03-16T10:30:56.748Z,27.53
2018-03-16T10:33:25.175Z,26.80
2018-03-16T10:35:53.634Z,28.07
2018-03-16T10:38:22.101Z,29.33
2018-03-16T10:40:50.588Z,27.70
2018-03-16T10:43:19.006Z,26.73
2018-03-16T10:45:47.474Z,27.47
2018-03-16T10:48:15.919Z,26.13
2018-03-16T10:50:44.384Z,25.93
2018-03-16T10:53:12.813Z,27.57
2018-03-16T10:55:41.266Z,27.20
2018-03-16T10:58:09.766Z,25.87
2018-03-16T11:00:43.742Z,25.50
2018-03-16T11:03:15.147Z,25.30
2018-03-16T11:05:51.038Z,22.63
2018-03-16T11:08:26.478Z,22.87
2018-03-16T11:11:01.218Z,23.57
2018-03-16T11:13:30.483Z,23.40
2018-03-16T11:15:58.956Z,25.10
2018-03-16T11:18:27.456Z,23.77
2018-03-16T11:20:56.661Z,24.63
2018-03-16T11:23:25.076Z,26.13
2018-03-16T11:25:53.540Z,26.93
2018-03-16T11:28:21.981Z,24.37
2018-03-16T11:30:51.234Z,24.07
2018-03-16T11:33:19.676Z,23.00
2018-03-16T11:35:48.208Z,23.03
2018-03-16T11:38:16.761Z,20.17
2018-03-16T11:40:51.677Z,21.53
2018-03-16T11:43:20.159Z,23.27
2018-03-16T11:45:48.609Z,23.13
2018-03-16T11:48:17.094Z,24.10
2018-03-16T11:50:46.320Z,24.27
2018-03-16T11:53:14.782Z,23.93
2018-03-16T11:55:44.029Z,23.40
2018-03-16T11:58:12.478Z,23.13
2018-03-16T12:00:42.641Z,22.20
2018-03-16T12:03:12.074Z,22.80
2018-03-16T12:05:41.340Z,22.90
2018-03-16T12:08:09.856Z,22.23
2018-03-16T12:10:39.081Z,22.87
2018-03-16T12:13:07.533Z,20.20
2018-03-16T12:15:35.968Z,21.73
2018-03-16T12:18:04.462Z,22.63
2018-03-16T12:20:32.919Z,23.27
2018-03-16T12:23:01.416Z,21.53
2018-03-16T12:25:29.858Z,20.87
2018-03-16T12:27:58.326Z,22.37
2018-03-16T12:30:26.776Z,20.43
2018-03-16T12:32:56.012Z,24.20
2018-03-16T12:35:24.487Z,24.00
2018-03-16T12:37:52.974Z,22.30
2018-03-16T12:40:21.445Z,21.17
2018-03-16T12:42:49.899Z,20.93
2018-03-16T12:45:20.881Z,20.53
2018-03-16T12:47:49.305Z,21.77
2018-03-16T12:50:17.750Z,20.90
2018-03-16T12:52:46.203Z,21.00
2018-03-16T12:55:31.664Z,20.90
2018-03-16T12:58:04.079Z,19.07
2018-03-16T13:00:32.524Z,20.03
2018-03-16T13:03:00.976Z,20.23
2018-03-16T13:05:29.422Z,19.77
2018-03-16T13:07:57.906Z,18.43
2018-03-16T13:10:26.375Z,20.03
2018-03-16T13:12:54.852Z,19.40
2018-03-16T13:15:23.323Z,19.83
2018-03-16T13:17:54.265Z,19.53
2018-03-16T13:20:25.398Z,19.27
2018-03-16T13:22:56.130Z,17.30
2018-03-16T13:25:26.302Z,18.27
2018-03-16T13:27:56.151Z,18.40
2018-03-16T13:30:27.067Z,16.60
2018-03-16T13:32:56.365Z,18.07
2018-03-16T13:35:29.952Z,17.10
2018-03-16T13:38:00.961Z,16.90
2018-03-16T13:40:29.424Z,16.87
2018-03-16T13:42:57.879Z,17.53
2018-03-16T13:45:26.334Z,16.57
2018-03-16T13:47:55.502Z,16.60
2018-03-16T13:50:24.008Z,17.30
2018-03-16T13:52:52.463Z,16.50
2018-03-16T13:55:20.913Z,15.27
2018-03-16T13:57:49.393Z,14.50
2018-03-16T14:00:17.847Z,15.87
2018-03-16T14:02:47.046Z,14.80
2018-03-16T14:05:15.570Z,14.40
2018-03-16T14:07:46.248Z,12.93
2018-03-16T14:10:14.870Z,15.10
2018-03-16T14:12:43.338Z,15.77
2018-03-16T14:15:11.780Z,14.90
2018-03-16T14:17:40.424Z,14.80
2018-03-16T14:20:08.883Z,16.40
2018-03-16T14:22:37.396Z,16.90
2018-03-16T14:25:07.041Z,14.13
2018-03-16T14:27:36.284Z,15.23
2018-03-16T14:30:04.771Z,14.57
2018-03-16T14:32:33.239Z,15.43
2018-03-16T14:35:01.947Z,14.07
2018-03-16T14:37:30.399Z,16.87
2018-03-16T14:39:58.893Z,15.43
2018-03-16T14:42:27.354Z,16.40
2018-03-16T14:44:55.772Z,15.90
2018-03-16T14:47:24.270Z,17.20
2018-03-16T14:49:52.686Z,15.47
2018-03-16T14:52:21.149Z,16.43
2018-03-16T14:54:50.399Z,16.10
2018-03-16T14:57:18.844Z,16.30
2018-03-16T14:59:47.257Z,16.17
2018-03-16T15:02:15.692Z,16.00
2018-03-16T15:04:44.150Z,16.20
2018-03-16T15:07:13.807Z,15.57
2018-03-16T15:09:42.243Z,16.97
2018-03-16T15:12:10.649Z,15.63
2018-03-16T15:14:39.102Z,15.07
2018-03-16T15:17:08.294Z,16.33
2018-03-16T15:19:37.459Z,17.33
2018-03-16T15:22:06.058Z,17.10
2018-03-16T15:24:34.466Z,16.80
2018-03-16T15:27:02.893Z,16.90
2018-03-16T15:29:31.377Z,19.30
2018-03-16T15:31:59.867Z,18.37
2018-03-16T15:34:28.334Z,16.63
2018-03-16T15:36:56.813Z,15.37
2018-03-16T15:39:25.279Z,14.50
2018-03-16T15:41:53.807Z,14.00
2018-03-16T15:44:22.355Z,12.57
2018-03-16T15:46:50.806Z,12.60
2018-03-16T15:49:19.278Z,13.27
2018-03-16T15:51:49.601Z,13.23
2018-03-16T15:54:18.117Z,13.23
2018-03-16T15:56:46.581Z,13.37
2018-03-16T15:59:15.008Z,12.40
2018-03-16T16:01:44.580Z,14.50
2018-03-16T16:04:13.098Z,13.00
2018-03-16T16:06:42.331Z,12.80
2018-03-16T16:09:10.769Z,12.60
2018-03-16T16:11:39.204Z,12.43
2018-03-16T16:14:07.637Z,12.63
2018-03-16T16:16:36.865Z,11.27
2018-03-16T16:19:05.301Z,12.17
2018-03-16T16:21:35.771Z,12.27
2018-03-16T16:24:04.228Z,11.97
2018-03-16T16:26:33.448Z,11.67
2018-03-16T16:29:01.872Z,12.10
2018-03-16T16:31:39.760Z,10.80
2018-03-16T16:34:08.249Z,10.20
2018-03-16T16:36:36.722Z,10.97
2018-03-16T16:39:06.076Z,11.67
2018-03-16T16:41:34.639Z,10.90
2018-03-16T16:44:08.490Z,11.37
2018-03-16T16:46:36.968Z,10.43
2018-03-16T16:49:07.480Z,10.93
2018-03-16T16:51:38.540Z,11.63
2018-03-16T16:54:09.461Z,11.03
2018-03-16T16:56:39.829Z,10.20
2018-03-16T16:59:10.643Z,10.60
2018-03-16T17:01:40.974Z,11.17
2018-03-16T17:04:11.480Z,10.77
2018-03-16T17:06:42.022Z,11.97
2018-03-16T17:09:12.582Z,11.07
2018-03-16T17:11:43.311Z,11.47
2018-03-16T17:14:13.805Z,11.27
2018-03-16T17:16:45.655Z,12.67
2018-03-16T17:19:14.122Z,12.67
2018-03-16T17:21:42.587Z,11.63
2018-03-16T17:24:11.067Z,13.17
2018-03-16T17:26:39.574Z,12.70
2018-03-16T17:29:08.025Z,13.57
2018-03-16T17:31:38.311Z,13.67
2018-03-16T17:34:09.284Z,13.87
2018-03-16T17:36:47.021Z,14.30
2018-03-16T17:39:17.946Z,13.10
2018-03-16T17:41:48.169Z,13.33
2018-03-16T17:44:18.559Z,11.87
2018-03-16T17:46:50.069Z,9.47
2018-03-16T17:49:18.545Z,10.50
2018-03-16T17:51:47.014Z,9.30
2018-03-16T17:54:15.479Z,10.07
2018-03-16T17:56:43.936Z,10.23
2018-03-16T17:59:12.379Z,9.93
2018-03-16T18:01:40.844Z,9.40
2018-03-16T18:04:09.308Z,9.87
2018-03-16T18:06:38.390Z,8.87
2018-03-16T18:09:06.880Z,8.47
2018-03-16T18:11:35.339Z,8.83
2018-03-16T18:14:05.238Z,8.20
2018-03-16T18:16:33.858Z,9.07
2018-03-16T18:19:02.323Z,9.30
2018-03-16T18:21:30.765Z,9.03
2018-03-16T18:23:59.164Z,8.40
2018-03-16T18:26:27.608Z,8.03
2018-03-16T18:28:56.110Z,7.93
2018-03-16T18:31:25.343Z,8.73
2018-03-16T18:33:54.111Z,8.43
2018-03-16T18:36:22.577Z,8.00
2018-03-16T18:38:51.763Z,8.73
2018-03-16T18:41:20.977Z,8.60
2018-03-16T18:43:51.104Z,7.77
2018-03-16T18:46:19.753Z,7.43
2018-03-16T18:48:48.691Z,7.47
2018-03-16T18:51:17.780Z,7.57
2018-03-16T18:53:46.263Z,7.67
2018-03-16T18:56:14.698Z,7.50
2018-03-16T18:58:47.855Z,7.73
2018-03-16T19:01:21.855Z,7.33
2018-03-16T19:03:50.751Z,7.20
2018-03-16T19:06:19.480Z,7.33
2018-03-16T19:08:47.940Z,7.67
2018-03-16T19:11:16.398Z,7.17
2018-03-16T19:13:44.820Z,6.87
2018-03-16T19:16:17.992Z,7.43
2018-03-16T19:18:53.202Z,7.73
2018-03-16T19:21:22.355Z,8.00
2018-03-16T19:23:50.808Z,7.90
2018-03-16T19:26:19.231Z,8.77
2018-03-16T19:28:47.752Z,7.17
2018-03-16T19:31:18.127Z,7.33
2018-03-16T19:33:46.639Z,7.20
2018-03-16T19:36:15.060Z,6.97
2018-03-16T19:38:45.596Z,7.17
2018-03-16T19:41:14.059Z,6.80
2018-03-16T19:43:42.505Z,8.40
2018-03-16T19:46:11.061Z,7.30
2018-03-16T19:48:39.541Z,6.97
2018-03-16T19:51:08.013Z,6.50
2018-03-16T19:53:37.220Z,7.93
2018-03-16T19:56:05.976Z,6.80
2018-03-16T19:58:34.471Z,7.03
2018-03-16T20:01:02.946Z,6.90
2018-03-16T20:03:33.186Z,7.07
2018-03-16T20:06:01.932Z,7.07
2018-03-16T20:08:30.383Z,6.70
2018-03-16T20:11:05.322Z,6.80
2018-03-16T20:13:34.147Z,7.10
2018-03-16T20:16:03.654Z,6.70
2018-03-16T20:18:37.022Z,7.57
2018-03-16T20:21:13.846Z,6.60
2018-03-16T20:23:43.303Z,6.90
2018-03-16T20:26:11.773Z,7.53
2018-03-16T20:28:40.223Z,6.43
2018-03-16T20:31:08.665Z,7.13
2018-03-16T20:33:37.885Z,7.20
2018-03-16T20:36:12.373Z,6.97
2018-03-16T20:38:42.000Z,7.03
2018-03-16T20:41:10.437Z,6.53
2018-03-16T20:43:38.877Z,7.07
2018-03-16T20:46:07.387Z,7.30
2018-03-16T20:48:37.961Z,7.47
2018-03-16T20:51:09.364Z,6.63
2018-03-16T20:53:44.184Z,7.43
2018-03-16T20:56:13.350Z,7.47
2018-03-16T20:58:41.804Z,6.93
2018-03-16T21:01:12.463Z,7.13
2018-03-16T21:03:40.918Z,7.60
2018-03-16T21:06:10.107Z,7.70
2018-03-16T21:08:38.516Z,8.30
2018-03-16T21:11:07.356Z,8.17
2018-03-16T21:13:35.811Z,8.17
2018-03-16T21:16:04.277Z,7.93
2018-03-16T21:18:32.873Z,8.17
2018-03-16T21:21:01.302Z,7.83
2018-03-16T21:23:30.500Z,7.93
2018-03-16T21:25:59.697Z,8.20
2018-03-16T21:28:28.928Z,8.60
2018-03-16T21:30:57.365Z,7.43
2018-03-16T21:33:25.809Z,7.57
2018-03-16T21:35:54.446Z,7.90
2018-03-16T21:38:22.883Z,7.43
2018-03-16T21:40:51.350Z,8.03
2018-03-16T21:43:20.193Z,7.60
2018-03-16T21:45:48.700Z,7.10
2018-03-16T21:48:17.136Z,7.20
2018-03-16T21:50:46.108Z,7.27
2018-03-16T21:53:14.660Z,8.10
2018-03-16T21:55:43.862Z,6.80
2018-03-16T21:58:12.359Z,6.80
2018-03-16T22:00:40.815Z,6.90
2018-03-16T22:03:09.249Z,8.03
2018-03-16T22:05:38.480Z,7.80
2018-03-16T22:08:06.915Z,7.03
2018-03-16T22:10:35.344Z,7.40
2018-03-16T22:13:03.778Z,6.80
2018-03-16T22:15:32.250Z,7.23
2018-03-16T22:18:02.084Z,6.70
2018-03-16T22:20:31.322Z,7.27
2018-03-16T22:22:59.746Z,6.70
2018-03-16T22:25:28.998Z,6.33
2018-03-16T22:27:57.521Z,6.83
2018-03-16T22:30:25.966Z,7.73
2018-03-16T22:32:54.375Z,6.70
2018-03-16T22:35:22.820Z,6.83
2018-03-16T22:37:51.257Z,6.87
2018-03-16T22:40:20.626Z,7.53
2018-03-16T22:42:49.054Z,6.80
2018-03-16T22:45:17.521Z,6.37
2018-03-16T22:47:46.118Z,7.20
2018-03-16T22:50:14.965Z,6.10
2018-03-16T22:52:43.403Z,5.93
2018-03-16T22:55:11.791Z,5.70
2018-03-16T22:57:40.246Z,5.30
2018-03-16T23:00:08.677Z,5.37
2018-03-16T23:02:37.169Z,5.33
2018-03-16T23:05:06.485Z,5.37
2018-03-16T23:07:34.933Z,4.90
2018-03-16T23:10:03.445Z,4.70
2018-03-16T23:12:31.922Z,5.03
2018-03-16T23:15:01.089Z,4.23
2018-03-16T23:17:29.531Z,4.63
2018-03-16T23:19:58.150Z,4.07
2018-03-16T23:22:26.560Z,4.47
2018-03-16T23:24:54.981Z,4.40
2018-03-16T23:27:23.416Z,4.20
2018-03-16T23:29:51.852Z,5.10
2018-03-16T23:32:20.288Z,5.17
2018-03-16T23:34:48.736Z,4.43
2018-03-16T23:37:17.209Z,4.70
2018-03-16T23:39:45.677Z,5.17
2018-03-16T23:42:14.141Z,5.50
2018-03-16T23:44:42.576Z,4.87
2018-03-16T23:47:11.024Z,5.30
2018-03-16T23:49:39.465Z,4.93
2018-03-16T23:52:07.889Z,4.93
2018-03-16T23:54:36.279Z,5.20
2018-03-16T23:57:04.742Z,5.23
2018-03-16T23:59:33.185Z,5.00
